createdAt,value
2022-09-28T00:00:42.386Z,969.12
2022-09-28T00:01:42.475Z,969.10
2022-09-28T00:02:42.415Z,969.09
2022-09-28T00:03:42.375Z,969.07
2022-09-28T00:04:42.356Z,969.03
2022-09-28T00:05:42.349Z,969.02
2022-09-28T00:06:42.360Z,969.00
2022-09-28T00:07:42.336Z,968.97
2022-09-28T00:08:42.329Z,968.93
2022-09-28T00:09:42.337Z,968.91
2022-09-28T00:10:42.309Z,968.88
2022-09-28T00:11:42.300Z,968.85
2022-09-28T00:12:42.304Z,968.85
2022-09-28T00:13:42.288Z,968.84
2022-09-28T00:14:42.304Z,968.83
2022-09-28T00:15:42.262Z,968.81
2022-09-28T00:16:42.294Z,968.81
2022-09-28T00:17:42.243Z,968.80
2022-09-28T00:18:42.233Z,968.79
2022-09-28T00:19:42.236Z,968.78
2022-09-28T00:20:42.244Z,968.73
2022-09-28T00:21:42.251Z,968.74
2022-09-28T00:22:42.205Z,968.73
2022-09-28T00:23:42.193Z,968.70
2022-09-28T00:24:42.180Z,968.69
2022-09-28T00:25:42.180Z,968.65
2022-09-28T00:26:42.182Z,968.63
2022-09-28T00:27:42.177Z,968.62
2022-09-28T00:28:42.150Z,968.58
2022-09-28T00:29:42.144Z,968.56
2022-09-28T00:30:42.128Z,968.53
2022-09-28T00:31:42.190Z,968.49
2022-09-28T00:32:42.104Z,968.48
2022-09-28T00:33:42.107Z,968.47
2022-09-28T00:34:42.100Z,968.48
2022-09-28T00:35:42.085Z,968.49
2022-09-28T00:36:42.079Z,968.50
2022-09-28T00:37:42.083Z,968.48
2022-09-28T00:38:42.050Z,968.45
2022-09-28T00:39:42.061Z,968.43
2022-09-28T00:40:42.074Z,968.38
2022-09-28T00:41:42.054Z,968.35
2022-09-28T00:42:42.044Z,968.32
2022-09-28T00:43:42.012Z,968.28
2022-09-28T00:44:42.006Z,968.26
2022-09-28T00:45:42.049Z,968.22
2022-09-28T00:46:42.021Z,968.21
2022-09-28T00:47:42.783Z,968.21
2022-09-28T00:48:41.975Z,968.22
2022-09-28T00:49:41.984Z,968.22
2022-09-28T00:50:41.951Z,968.21
2022-09-28T00:51:41.949Z,968.23
2022-09-28T00:52:41.932Z,968.24
2022-09-28T00:53:41.918Z,968.27
2022-09-28T00:54:41.919Z,968.26
2022-09-28T00:55:41.932Z,968.25
2022-09-28T00:56:41.892Z,968.26
2022-09-28T00:57:41.887Z,968.27
2022-09-28T00:58:41.879Z,968.27
2022-09-28T00:59:41.867Z,968.26
2022-09-28T01:00:41.955Z,968.23
2022-09-28T01:01:41.897Z,968.19
2022-09-28T01:02:41.902Z,968.18
2022-09-28T01:03:41.854Z,968.15
2022-09-28T01:04:41.820Z,968.13
2022-09-28T01:05:41.833Z,968.12
2022-09-28T01:06:41.803Z,968.09
2022-09-28T01:07:41.807Z,968.05
2022-09-28T01:08:41.801Z,968.03
2022-09-28T01:09:41.816Z,967.99
2022-09-28T01:10:41.767Z,967.96
2022-09-28T01:11:41.761Z,967.95
2022-09-28T01:12:41.829Z,967.92
2022-09-28T01:13:41.745Z,967.91
2022-09-28T01:14:41.727Z,967.89
2022-09-28T01:15:41.758Z,967.86
2022-09-28T01:16:41.758Z,967.83
2022-09-28T01:17:41.715Z,967.82
2022-09-28T01:18:41.709Z,967.81
2022-09-28T01:19:41.704Z,967.79
2022-09-28T01:20:42.273Z,967.78
2022-09-28T01:21:41.728Z,967.78
2022-09-28T01:22:41.664Z,967.77
2022-09-28T01:23:41.660Z,967.77
2022-09-28T01:24:41.658Z,967.77
2022-09-28T01:25:41.636Z,967.76
2022-09-28T01:26:41.661Z,967.75
2022-09-28T01:27:41.612Z,967.75
2022-09-28T01:28:41.610Z,967.74
2022-09-28T01:29:41.618Z,967.73
2022-09-28T01:30:41.598Z,967.73
2022-09-28T01:31:41.638Z,967.72
2022-09-28T01:32:41.596Z,967.72
2022-09-28T01:33:41.576Z,967.71
2022-09-28T01:34:41.562Z,967.70
2022-09-28T01:35:41.555Z,967.69
2022-09-28T01:36:41.554Z,967.68
2022-09-28T01:37:41.549Z,967.66
2022-09-28T01:38:41.545Z,967.64
2022-09-28T01:39:41.527Z,967.64
2022-09-28T01:40:49.054Z,967.62
2022-09-28T01:41:41.496Z,967.60
2022-09-28T01:42:41.504Z,967.59
2022-09-28T01:43:41.484Z,967.56
2022-09-28T01:44:41.469Z,967.56
2022-09-28T01:45:41.495Z,967.56
2022-09-28T01:46:41.457Z,967.53
2022-09-28T01:47:41.484Z,967.52
2022-09-28T01:48:41.463Z,967.50
2022-09-28T01:49:41.441Z,967.48
2022-09-28T01:50:41.416Z,967.47
2022-09-28T01:51:41.418Z,967.46
2022-09-28T01:52:41.586Z,967.45
2022-09-28T01:53:41.458Z,967.45
2022-09-28T01:54:41.391Z,967.43
2022-09-28T01:55:41.379Z,967.41
2022-09-28T01:56:41.407Z,967.40
2022-09-28T01:57:41.391Z,967.38
2022-09-28T01:58:41.350Z,967.37
2022-09-28T01:59:41.387Z,967.37
2022-09-28T02:00:41.413Z,967.35
2022-09-28T02:01:41.405Z,967.35
2022-09-28T02:02:41.317Z,967.33
2022-09-28T02:03:41.311Z,967.32
2022-09-28T02:04:41.324Z,967.31
2022-09-28T02:05:41.295Z,967.28
2022-09-28T02:06:41.308Z,967.26
2022-09-28T02:07:41.280Z,967.25
2022-09-28T02:08:41.265Z,967.23
2022-09-28T02:09:41.255Z,967.22
2022-09-28T02:10:41.364Z,967.20
2022-09-28T02:11:41.248Z,967.19
2022-09-28T02:12:41.240Z,967.18
2022-09-28T02:13:41.224Z,967.18
2022-09-28T02:14:41.213Z,967.17
2022-09-28T02:15:41.242Z,967.16
2022-09-28T02:16:41.277Z,967.16
2022-09-28T02:17:41.238Z,967.13
2022-09-28T02:18:41.177Z,967.11
2022-09-28T02:19:41.172Z,967.09
2022-09-28T02:20:41.158Z,967.08
2022-09-28T02:21:41.151Z,967.06
2022-09-28T02:22:41.130Z,967.06
2022-09-28T02:23:41.151Z,967.05
2022-09-28T02:24:41.115Z,967.05
2022-09-28T02:25:41.154Z,967.03
2022-09-28T02:26:41.100Z,966.99
2022-09-28T02:27:41.103Z,966.99
2022-09-28T02:28:41.087Z,967.00
2022-09-28T02:29:41.090Z,967.01
2022-09-28T02:30:41.075Z,967.01
2022-09-28T02:31:41.116Z,967.00
2022-09-28T02:32:41.052Z,966.99
2022-09-28T02:33:41.045Z,966.97
2022-09-28T02:34:41.031Z,966.96
2022-09-28T02:35:41.053Z,966.94
2022-09-28T02:36:41.039Z,966.92
2022-09-28T02:37:41.000Z,966.91
2022-09-28T02:38:40.986Z,966.90
2022-09-28T02:39:40.991Z,966.90
2022-09-28T02:40:41.029Z,966.90
2022-09-28T02:41:40.967Z,966.89
2022-09-28T02:42:40.978Z,966.88
2022-09-28T02:43:40.956Z,966.87
2022-09-28T02:44:40.948Z,966.86
2022-09-28T02:45:40.968Z,966.84
2022-09-28T02:46:40.935Z,966.81
2022-09-28T02:47:40.940Z,966.78
2022-09-28T02:48:43.962Z,966.74
2022-09-28T02:49:40.901Z,966.71
2022-09-28T02:50:40.899Z,966.69
2022-09-28T02:51:40.894Z,966.69
2022-09-28T02:52:40.898Z,966.69
2022-09-28T02:53:40.884Z,966.67
2022-09-28T02:54:40.863Z,966.65
2022-09-28T02:55:40.850Z,966.64
2022-09-28T02:56:40.835Z,966.63
2022-09-28T02:57:40.837Z,966.62
2022-09-28T02:58:40.821Z,966.61
2022-09-28T02:59:40.837Z,966.59
2022-09-28T03:00:40.854Z,966.59
2022-09-28T03:01:40.860Z,966.58
2022-09-28T03:02:40.777Z,966.58
2022-09-28T03:03:40.790Z,966.57
2022-09-28T03:04:40.779Z,966.57
2022-09-28T03:05:40.747Z,966.56
2022-09-28T03:06:40.741Z,966.55
2022-09-28T03:07:40.741Z,966.53
2022-09-28T03:08:40.748Z,966.52
2022-09-28T03:09:40.721Z,966.52
2022-09-28T03:10:40.705Z,966.52
2022-09-28T03:11:40.710Z,966.52
2022-09-28T03:12:40.684Z,966.51
2022-09-28T03:13:40.691Z,966.51
2022-09-28T03:14:40.715Z,966.50
2022-09-28T03:15:41.949Z,966.50
2022-09-28T03:16:40.741Z,966.49
2022-09-28T03:17:40.640Z,966.49
2022-09-28T03:18:40.641Z,966.48
2022-09-28T03:19:40.627Z,966.47
2022-09-28T03:20:40.637Z,966.46
2022-09-28T03:21:40.604Z,966.44
2022-09-28T03:22:40.602Z,966.42
2022-09-28T03:23:40.597Z,966.38
2022-09-28T03:24:40.586Z,966.35
2022-09-28T03:25:40.583Z,966.32
2022-09-28T03:26:40.594Z,966.33
2022-09-28T03:27:40.582Z,966.33
2022-09-28T03:28:40.566Z,966.32
2022-09-28T03:29:40.556Z,966.31
2022-09-28T03:30:40.539Z,966.31
2022-09-28T03:31:40.542Z,966.30
2022-09-28T03:32:40.537Z,966.29
2022-09-28T03:33:40.511Z,966.28
2022-09-28T03:34:40.495Z,966.29
2022-09-28T03:35:40.490Z,966.30
2022-09-28T03:36:40.472Z,966.30
2022-09-28T03:37:40.532Z,966.29
2022-09-28T03:38:40.476Z,966.28
2022-09-28T03:39:40.460Z,966.28
2022-09-28T03:40:40.507Z,966.27
2022-09-28T03:41:40.451Z,966.25
2022-09-28T03:42:40.437Z,966.22
2022-09-28T03:43:40.450Z,966.20
2022-09-28T03:44:40.413Z,966.18
2022-09-28T03:45:40.476Z,966.16
2022-09-28T03:46:40.403Z,966.15
2022-09-28T03:47:40.388Z,966.15
2022-09-28T03:48:40.401Z,966.14
2022-09-28T03:49:40.401Z,966.13
2022-09-28T03:50:40.369Z,966.12
2022-09-28T03:51:40.399Z,966.11
2022-09-28T03:52:40.347Z,966.11
2022-09-28T03:53:40.357Z,966.10
2022-09-28T03:54:40.349Z,966.09
2022-09-28T03:55:40.333Z,966.08
2022-09-28T03:56:40.313Z,966.07
2022-09-28T03:57:40.335Z,966.06
2022-09-28T03:58:40.304Z,966.05
2022-09-28T03:59:40.319Z,966.06
2022-09-28T04:00:40.354Z,966.05
2022-09-28T04:01:40.421Z,966.04
2022-09-28T04:02:40.271Z,966.01
2022-09-28T04:03:40.254Z,965.99
2022-09-28T04:04:40.254Z,965.99
2022-09-28T04:05:40.249Z,965.95
2022-09-28T04:06:40.239Z,965.93
2022-09-28T04:07:40.248Z,965.92
2022-09-28T04:08:40.220Z,965.92
2022-09-28T04:09:40.206Z,965.93
2022-09-28T04:10:40.201Z,965.92
2022-09-28T04:11:59.721Z,965.90
2022-09-28T04:12:41.225Z,965.88
2022-09-28T04:13:40.213Z,965.87
2022-09-28T04:14:40.181Z,965.87
2022-09-28T04:15:40.176Z,965.87
2022-09-28T04:16:40.203Z,965.87
2022-09-28T04:17:40.417Z,965.86
2022-09-28T04:18:40.164Z,965.87
2022-09-28T04:19:40.143Z,965.88
2022-09-28T04:20:40.115Z,965.87
2022-09-28T04:21:40.151Z,965.88
2022-09-28T04:22:40.112Z,965.88
2022-09-28T04:23:40.086Z,965.89
2022-09-28T04:24:40.101Z,965.89
2022-09-28T04:25:40.068Z,965.89
2022-09-28T04:26:40.073Z,965.90
2022-09-28T04:27:40.071Z,965.90
2022-09-28T04:28:40.066Z,965.90
2022-09-28T04:29:40.048Z,965.91
2022-09-28T04:30:40.056Z,965.91
2022-09-28T04:31:40.072Z,965.89
2022-09-28T04:32:40.044Z,965.91
2022-09-28T04:33:40.005Z,965.91
2022-09-28T04:34:43.870Z,965.92
2022-09-28T04:35:40.003Z,965.92
2022-09-28T04:36:39.997Z,965.90
2022-09-28T04:37:39.971Z,965.89
2022-09-28T04:38:52.868Z,965.89
2022-09-28T04:39:43.954Z,965.91
2022-09-28T04:40:40.988Z,965.91
2022-09-28T04:41:39.957Z,965.92
2022-09-28T04:42:39.962Z,965.91
2022-09-28T04:43:39.923Z,965.90
2022-09-28T04:44:39.953Z,965.91
2022-09-28T04:45:39.982Z,965.89
2022-09-28T04:46:39.934Z,965.89
2022-09-28T04:47:39.909Z,965.90
2022-09-28T04:48:39.883Z,965.90
2022-09-28T04:49:39.931Z,965.91
2022-09-28T04:50:39.861Z,965.92
2022-09-28T04:51:39.859Z,965.92
2022-09-28T04:52:39.837Z,965.92
2022-09-28T04:53:39.830Z,965.92
2022-09-28T04:54:39.848Z,965.92
2022-09-28T04:55:39.816Z,965.91
2022-09-28T04:56:39.820Z,965.91
2022-09-28T04:57:39.802Z,965.92
2022-09-28T04:58:39.815Z,965.92
2022-09-28T04:59:39.948Z,965.93
2022-09-28T05:00:39.776Z,965.92
2022-09-28T05:01:39.817Z,965.93
2022-09-28T05:02:39.810Z,965.94
2022-09-28T05:03:39.773Z,965.95
2022-09-28T05:04:39.847Z,965.95
2022-09-28T05:05:39.825Z,965.95
2022-09-28T05:06:39.715Z,965.97
2022-09-28T05:07:39.776Z,965.96
2022-09-28T05:08:39.703Z,965.97
2022-09-28T05:09:39.703Z,965.97
2022-09-28T05:10:39.699Z,965.98
2022-09-28T05:11:39.748Z,965.97
2022-09-28T05:12:39.682Z,965.97
2022-09-28T05:13:39.665Z,965.98
2022-09-28T05:14:39.655Z,965.99
2022-09-28T05:15:39.654Z,965.99
2022-09-28T05:16:39.709Z,966.00
2022-09-28T05:17:39.659Z,966.02
2022-09-28T05:18:39.618Z,966.02
2022-09-28T05:19:39.618Z,966.03
2022-09-28T05:20:39.600Z,966.04
2022-09-28T05:21:39.820Z,966.05
2022-09-28T05:22:39.634Z,966.05
2022-09-28T05:23:39.579Z,966.05
2022-09-28T05:24:39.577Z,966.05
2022-09-28T05:25:39.572Z,966.05
2022-09-28T05:26:39.568Z,966.06
2022-09-28T05:27:39.540Z,966.06
2022-09-28T05:28:39.559Z,966.06
2022-09-28T05:29:39.543Z,966.05
2022-09-28T05:30:39.533Z,966.05
2022-09-28T05:31:39.553Z,966.05
2022-09-28T05:32:39.503Z,966.06
2022-09-28T05:33:39.597Z,966.06
2022-09-28T05:34:39.518Z,966.07
2022-09-28T05:35:39.519Z,966.08
2022-09-28T05:36:39.462Z,966.08
2022-09-28T05:37:39.463Z,966.07
2022-09-28T05:38:39.459Z,966.08
2022-09-28T05:39:39.447Z,966.08
2022-09-28T05:40:43.329Z,966.08
2022-09-28T05:41:39.459Z,966.09
2022-09-28T05:42:39.582Z,966.10
2022-09-28T05:43:39.413Z,966.11
2022-09-28T05:44:39.415Z,966.11
2022-09-28T05:45:39.506Z,966.10
2022-09-28T05:46:39.411Z,966.10
2022-09-28T05:47:39.380Z,966.11
2022-09-28T05:48:39.390Z,966.09
2022-09-28T05:49:39.353Z,966.11
2022-09-28T05:50:39.452Z,966.13
2022-09-28T05:51:39.391Z,966.14
2022-09-28T05:52:39.337Z,966.15
2022-09-28T05:53:39.329Z,966.17
2022-09-28T05:54:39.327Z,966.16
2022-09-28T05:55:39.385Z,966.14
2022-09-28T05:56:40.553Z,966.14
2022-09-28T05:57:39.310Z,966.16
2022-09-28T05:58:39.314Z,966.17
2022-09-28T05:59:39.750Z,966.16
2022-09-28T06:00:39.271Z,966.18
2022-09-28T06:01:39.296Z,966.18
2022-09-28T06:02:39.321Z,966.20
2022-09-28T06:03:39.260Z,966.22
2022-09-28T06:04:39.252Z,966.24
2022-09-28T06:05:39.243Z,966.26
2022-09-28T06:06:39.216Z,966.27
2022-09-28T06:07:39.212Z,966.29
2022-09-28T06:08:39.229Z,966.30
2022-09-28T06:09:39.196Z,966.29
2022-09-28T06:10:39.185Z,966.31
2022-09-28T06:11:39.196Z,966.32
2022-09-28T06:12:39.179Z,966.32
2022-09-28T06:13:39.191Z,966.33
2022-09-28T06:14:39.378Z,966.33
2022-09-28T06:15:39.201Z,966.32
2022-09-28T06:16:43.102Z,966.32
2022-09-28T06:17:39.826Z,966.33
2022-09-28T06:18:39.117Z,966.34
2022-09-28T06:19:39.140Z,966.35
2022-09-28T06:20:39.110Z,966.36
2022-09-28T06:21:39.088Z,966.37
2022-09-28T06:22:39.094Z,966.40
2022-09-28T06:23:40.522Z,966.42
2022-09-28T06:24:39.076Z,966.43
2022-09-28T06:25:39.082Z,966.44
2022-09-28T06:26:39.052Z,966.44
2022-09-28T06:27:39.042Z,966.44
2022-09-28T06:28:39.034Z,966.45
2022-09-28T06:29:39.022Z,966.47
2022-09-28T06:30:39.165Z,966.49
2022-09-28T06:31:39.033Z,966.49
2022-09-28T06:32:38.994Z,966.50
2022-09-28T06:33:39.007Z,966.50
2022-09-28T06:34:38.995Z,966.50
2022-09-28T06:35:39.000Z,966.52
2022-09-28T06:36:38.974Z,966.53
2022-09-28T06:37:38.966Z,966.55
2022-09-28T06:38:38.963Z,966.55
2022-09-28T06:39:38.938Z,966.56
2022-09-28T06:40:39.025Z,966.57
2022-09-28T06:41:39.011Z,966.58
2022-09-28T06:42:38.914Z,966.59
2022-09-28T06:43:38.988Z,966.61
2022-09-28T06:44:38.903Z,966.62
2022-09-28T06:45:38.896Z,966.63
2022-09-28T06:46:38.960Z,966.64
2022-09-28T06:47:38.898Z,966.65
2022-09-28T06:48:38.870Z,966.65
2022-09-28T06:49:38.871Z,966.65
2022-09-28T06:50:38.855Z,966.66
2022-09-28T06:51:38.859Z,966.66
2022-09-28T06:52:38.866Z,966.66
2022-09-28T06:53:38.820Z,966.66
2022-09-28T06:54:38.832Z,966.66
2022-09-28T06:55:38.828Z,966.67
2022-09-28T06:56:38.806Z,966.67
2022-09-28T06:57:38.788Z,966.68
2022-09-28T06:58:38.799Z,966.69
2022-09-28T06:59:38.766Z,966.69
2022-09-28T07:00:38.764Z,966.72
2022-09-28T07:01:38.901Z,966.74
2022-09-28T07:02:38.837Z,966.74
2022-09-28T07:03:38.768Z,966.75
2022-09-28T07:04:38.723Z,966.75
2022-09-28T07:05:38.764Z,966.75
2022-09-28T07:06:38.732Z,966.75
2022-09-28T07:07:38.772Z,966.77
2022-09-28T07:08:38.729Z,966.77
2022-09-28T07:09:43.713Z,966.79
2022-09-28T07:10:39.690Z,966.81
2022-09-28T07:11:38.678Z,966.84
2022-09-28T07:12:38.673Z,966.86
2022-09-28T07:15:31.713Z,966.93
2022-09-28T07:16:05.653Z,966.95
2022-09-28T07:17:13.630Z,966.97
2022-09-28T07:18:06.698Z,966.98
2022-09-28T07:19:05.623Z,966.99
2022-09-28T07:20:16.236Z,967.01
2022-09-28T07:21:06.806Z,967.02
2022-09-28T07:22:05.817Z,967.03
2022-09-28T07:23:17.339Z,967.06
2022-09-28T07:24:06.627Z,967.07
2022-09-28T07:25:05.574Z,967.07
2022-09-28T07:26:08.128Z,967.09
2022-09-28T07:27:05.569Z,967.10
2022-09-28T07:28:05.554Z,967.09
2022-09-28T07:29:05.555Z,967.11
2022-09-28T07:30:05.543Z,967.11
2022-09-28T07:31:05.579Z,967.14
2022-09-28T07:32:05.553Z,967.16
2022-09-28T07:33:05.572Z,967.18
2022-09-28T07:34:05.517Z,967.19
2022-09-28T07:35:05.542Z,967.21
2022-09-28T07:36:05.536Z,967.24
2022-09-28T07:39:59.600Z,967.27
2022-09-28T07:40:59.749Z,967.30
2022-09-28T07:42:02.630Z,967.31
2022-09-28T07:42:59.513Z,967.31
2022-09-28T07:43:59.505Z,967.32
2022-09-28T07:44:59.498Z,967.33
2022-09-28T07:45:59.582Z,967.37
2022-09-28T07:46:59.482Z,967.32
2022-09-28T07:47:59.499Z,967.34
2022-09-28T07:48:59.460Z,967.36
2022-09-28T07:49:59.450Z,967.36
2022-09-28T07:50:59.448Z,967.38
2022-09-28T07:51:59.559Z,967.39
2022-09-28T07:52:59.425Z,967.41
2022-09-28T07:53:59.436Z,967.42
2022-09-28T07:55:03.362Z,967.44
2022-09-28T07:56:00.410Z,967.47
2022-09-28T07:56:59.439Z,967.50
2022-09-28T07:57:59.442Z,967.53
2022-09-28T07:58:59.403Z,967.51
2022-09-28T07:59:59.398Z,967.51
2022-09-28T08:00:59.418Z,967.53
2022-09-28T08:01:59.415Z,967.53
2022-09-28T08:02:59.344Z,967.56
2022-09-28T08:03:59.367Z,967.56
2022-09-28T08:04:59.326Z,967.56
2022-09-28T08:05:59.326Z,967.56
2022-09-28T08:06:59.352Z,967.57
2022-09-28T08:07:59.307Z,967.64
2022-09-28T08:08:59.312Z,967.57
2022-09-28T08:09:59.315Z,967.51
2022-09-28T08:10:59.301Z,967.46
2022-09-28T08:11:59.273Z,967.41
2022-09-28T08:13:02.090Z,967.39
2022-09-28T08:13:59.269Z,967.37
2022-09-28T08:14:59.241Z,967.34
2022-09-28T08:15:59.250Z,967.34
2022-09-28T08:16:59.217Z,967.27
2022-09-28T08:18:02.616Z,967.36
2022-09-28T08:18:59.248Z,967.38
2022-09-28T08:19:59.195Z,967.47
2022-09-28T08:20:59.213Z,967.41
2022-09-28T08:21:59.251Z,967.48
2022-09-28T08:22:59.177Z,967.51
2022-09-28T08:23:59.173Z,967.56
2022-09-28T08:24:59.165Z,967.62
2022-09-28T08:25:59.174Z,967.63
2022-09-28T08:26:59.207Z,967.68
2022-09-28T08:27:59.138Z,967.69
2022-09-28T08:28:59.156Z,967.74
2022-09-28T08:29:59.120Z,967.74
2022-09-28T08:30:59.160Z,967.70
2022-09-28T08:32:01.558Z,967.64
2022-09-28T08:32:59.102Z,967.55
2022-09-28T08:33:59.124Z,967.61
2022-09-28T08:34:59.084Z,967.58
2022-09-28T08:35:59.090Z,967.56
2022-09-28T08:36:59.062Z,967.52
2022-09-28T08:37:59.063Z,967.51
2022-09-28T08:38:59.041Z,967.54
2022-09-28T08:39:59.063Z,967.47
2022-09-28T08:40:59.123Z,967.53
2022-09-28T08:41:59.026Z,967.63
2022-09-28T08:42:59.026Z,967.68
2022-09-28T08:43:59.004Z,967.72
2022-09-28T08:44:59.016Z,967.77
2022-09-28T08:45:59.087Z,967.81
2022-09-28T08:46:58.986Z,967.85
2022-09-28T08:47:58.977Z,967.86
2022-09-28T08:49:20.437Z,967.89
2022-09-28T08:50:00.255Z,967.87
2022-09-28T08:50:58.951Z,967.92
2022-09-28T08:51:58.959Z,967.95
2022-09-28T08:52:58.930Z,967.95
2022-09-28T08:53:58.933Z,967.98
2022-09-28T08:54:58.908Z,967.99
2022-09-28T08:55:58.933Z,967.99
2022-09-28T08:56:58.889Z,968.04
2022-09-28T08:57:58.899Z,967.90
2022-09-28T08:58:58.870Z,967.94
2022-09-28T08:59:58.866Z,967.84
2022-09-28T09:00:58.888Z,967.89
2022-09-28T09:01:59.017Z,967.75
2022-09-28T09:02:58.874Z,967.80
2022-09-28T09:03:58.878Z,967.81
2022-09-28T09:04:58.825Z,967.84
2022-09-28T09:05:58.824Z,967.89
2022-09-28T09:06:58.806Z,967.90
2022-09-28T09:07:58.795Z,967.88
2022-09-28T09:08:58.790Z,967.84
2022-09-28T09:09:58.799Z,967.85
2022-09-28T09:10:58.792Z,967.84
2022-09-28T09:11:58.778Z,967.77
2022-09-28T09:12:58.799Z,967.81
2022-09-28T09:13:58.737Z,967.81
2022-09-28T09:14:58.749Z,967.77
2022-09-28T09:15:58.725Z,967.81
2022-09-28T09:17:00.521Z,967.82
2022-09-28T09:17:58.709Z,967.81
2022-09-28T09:18:58.704Z,967.84
2022-09-28T09:19:58.727Z,967.80
2022-09-28T09:20:58.696Z,967.80
2022-09-28T09:21:58.694Z,967.86
2022-09-28T09:22:58.696Z,967.84
2022-09-28T09:23:58.661Z,967.88
2022-09-28T09:24:58.669Z,967.90
2022-09-28T09:25:58.668Z,967.96
2022-09-28T09:26:58.633Z,968.02
2022-09-28T09:27:58.637Z,968.07
2022-09-28T09:28:58.653Z,968.11
2022-09-28T09:29:58.609Z,968.15
2022-09-28T09:30:58.635Z,968.22
2022-09-28T09:31:58.628Z,968.23
2022-09-28T09:32:58.599Z,968.25
2022-09-28T09:33:58.613Z,968.28
2022-09-28T09:34:58.564Z,968.29
2022-09-28T09:35:58.570Z,968.31
2022-09-28T09:36:58.546Z,968.31
2022-09-28T09:37:58.799Z,968.32
2022-09-28T09:38:58.542Z,968.33
2022-09-28T09:39:58.526Z,968.34
2022-09-28T09:40:58.589Z,968.35
2022-09-28T09:41:58.507Z,968.36
2022-09-28T09:42:58.529Z,968.37
2022-09-28T09:43:58.517Z,968.38
2022-09-28T09:44:58.490Z,968.39
2022-09-28T09:45:58.535Z,968.41
2022-09-28T09:46:58.477Z,968.42
2022-09-28T09:47:58.471Z,968.42
2022-09-28T09:48:58.454Z,968.43
2022-09-28T09:49:58.447Z,968.42
2022-09-28T09:50:58.430Z,968.43
2022-09-28T09:51:58.461Z,968.44
2022-09-28T09:52:58.406Z,968.47
2022-09-28T09:53:58.407Z,968.49
2022-09-28T09:54:58.393Z,968.51
2022-09-28T09:55:58.384Z,968.52
2022-09-28T09:56:58.395Z,968.60
2022-09-28T09:57:58.386Z,968.61
2022-09-28T09:58:58.377Z,968.64
2022-09-28T09:59:58.355Z,968.65
2022-09-28T10:00:58.403Z,968.68
2022-09-28T10:01:58.374Z,968.69
2022-09-28T10:02:58.423Z,968.73
2022-09-28T10:03:58.338Z,968.74
2022-09-28T10:04:58.371Z,968.77
2022-09-28T10:05:58.318Z,968.74
2022-09-28T10:06:58.298Z,968.70
2022-09-28T10:07:58.348Z,968.71
2022-09-28T10:08:58.282Z,968.69
2022-09-28T10:09:58.283Z,968.67
2022-09-28T10:10:58.288Z,968.65
2022-09-28T10:11:58.255Z,968.63
2022-09-28T10:12:58.248Z,968.64
2022-09-28T10:13:58.248Z,968.62
2022-09-28T10:14:58.237Z,968.55
2022-09-28T10:15:58.279Z,968.48
2022-09-28T10:16:58.361Z,968.44
2022-09-28T10:17:58.293Z,968.43
2022-09-28T10:18:58.206Z,968.41
2022-09-28T10:19:58.193Z,968.40
2022-09-28T10:20:58.199Z,968.41
2022-09-28T10:21:58.207Z,968.41
2022-09-28T10:22:58.175Z,968.41
2022-09-28T10:23:58.188Z,968.41
2022-09-28T10:24:58.141Z,968.41
2022-09-28T10:25:58.229Z,968.40
2022-09-28T10:26:58.129Z,968.39
2022-09-28T10:27:58.150Z,968.42
2022-09-28T10:28:58.118Z,968.39
2022-09-28T10:29:58.115Z,968.41
2022-09-28T10:30:58.235Z,968.44
2022-09-28T10:31:58.236Z,968.45
2022-09-28T10:32:59.310Z,968.45
2022-09-28T10:33:58.210Z,968.44
2022-09-28T10:34:58.205Z,968.44
2022-09-28T10:35:58.042Z,968.45
2022-09-28T10:36:58.050Z,968.44
2022-09-28T10:37:58.027Z,968.45
2022-09-28T10:38:58.054Z,968.46
2022-09-28T10:39:58.020Z,968.47
2022-09-28T10:40:58.125Z,968.47
2022-09-28T10:41:58.013Z,968.47
2022-09-28T10:42:57.986Z,968.45
2022-09-28T10:43:58.231Z,968.48
2022-09-28T10:44:58.001Z,968.49
2022-09-28T10:45:57.989Z,968.50
2022-09-28T10:46:57.954Z,968.48
2022-09-28T10:47:57.946Z,968.46
2022-09-28T10:48:57.940Z,968.46
2022-09-28T10:49:58.007Z,968.45
2022-09-28T10:50:57.925Z,968.45
2022-09-28T10:51:57.950Z,968.49
2022-09-28T10:52:57.903Z,968.48
2022-09-28T10:53:57.903Z,968.51
2022-09-28T10:54:57.898Z,968.51
2022-09-28T10:55:57.904Z,968.50
2022-09-28T10:56:57.904Z,968.49
2022-09-28T10:57:57.881Z,968.53
2022-09-28T10:58:57.860Z,968.53
2022-09-28T10:59:57.846Z,968.55
2022-09-28T11:00:57.869Z,968.53
2022-09-28T11:01:57.836Z,968.49
2022-09-28T11:02:57.872Z,968.54
2022-09-28T11:03:57.809Z,968.57
2022-09-28T11:04:57.795Z,968.51
2022-09-28T11:05:57.809Z,968.46
2022-09-28T11:06:57.833Z,968.43
2022-09-28T11:07:57.772Z,968.38
2022-09-28T11:08:57.778Z,968.33
2022-09-28T11:09:57.774Z,968.34
2022-09-28T11:10:57.756Z,968.32
2022-09-28T11:11:57.750Z,968.27
2022-09-28T11:12:57.757Z,968.30
2022-09-28T11:13:57.740Z,968.37
2022-09-28T11:14:57.738Z,968.43
2022-09-28T11:15:57.704Z,968.45
2022-09-28T11:16:57.745Z,968.50
2022-09-28T11:17:57.722Z,968.52
2022-09-28T11:18:57.682Z,968.56
2022-09-28T11:19:57.698Z,968.58
2022-09-28T11:20:57.670Z,968.60
2022-09-28T11:21:57.675Z,968.62
2022-09-28T11:22:57.675Z,968.62
2022-09-28T11:23:57.649Z,968.66
2022-09-28T11:24:57.640Z,968.66
2022-09-28T11:25:57.671Z,968.67
2022-09-28T11:26:57.624Z,968.70
2022-09-28T11:27:57.674Z,968.72
2022-09-28T11:28:57.598Z,968.73
2022-09-28T11:29:57.593Z,968.76
2022-09-28T11:30:57.746Z,968.77
2022-09-28T11:31:57.572Z,968.75
2022-09-28T11:32:57.627Z,968.78
2022-09-28T11:33:57.923Z,968.83
2022-09-28T11:35:00.069Z,968.81
2022-09-28T11:35:57.541Z,968.81
2022-09-28T11:37:01.504Z,968.84
2022-09-28T11:37:57.530Z,968.85
2022-09-28T11:38:58.883Z,968.85
2022-09-28T11:39:57.539Z,968.87
2022-09-28T11:40:57.670Z,968.90
2022-09-28T11:41:57.704Z,968.91
2022-09-28T11:42:58.018Z,968.91
2022-09-28T11:43:57.458Z,968.93
2022-09-28T11:44:58.147Z,968.94
2022-09-28T11:45:57.501Z,968.92
2022-09-28T11:46:57.685Z,968.94
2022-09-28T11:47:57.427Z,968.93
2022-09-28T11:48:57.424Z,968.94
2022-09-28T11:49:57.936Z,968.96
2022-09-28T11:50:57.405Z,968.95
2022-09-28T11:51:57.432Z,968.95
2022-09-28T11:52:57.398Z,968.96
2022-09-28T11:53:57.390Z,968.95
2022-09-28T11:54:58.174Z,968.94
2022-09-28T11:55:57.371Z,968.95
2022-09-28T11:56:57.735Z,968.95
2022-09-28T11:57:57.341Z,968.95
2022-09-28T11:58:57.525Z,968.95
2022-09-28T11:59:57.351Z,968.95
2022-09-28T12:00:57.334Z,968.94
2022-09-28T12:01:57.340Z,968.92
2022-09-28T12:02:57.976Z,968.90
2022-09-28T12:03:57.735Z,968.90
2022-09-28T12:04:57.298Z,968.89
2022-09-28T12:05:58.297Z,968.90
2022-09-28T12:06:57.284Z,968.89
2022-09-28T12:07:58.195Z,968.92
2022-09-28T12:08:57.753Z,968.84
2022-09-28T12:09:58.605Z,968.83
2022-09-28T12:10:57.248Z,968.84
2022-09-28T12:11:57.258Z,968.85
2022-09-28T12:12:57.651Z,968.85
2022-09-28T12:13:57.405Z,968.78
2022-09-28T12:14:57.583Z,968.73
2022-09-28T12:16:23.475Z,968.76
2022-09-28T12:17:06.711Z,968.77
2022-09-28T12:17:58.501Z,968.75
2022-09-28T12:18:57.279Z,968.75
2022-09-28T12:19:57.957Z,968.74
2022-09-28T12:20:58.745Z,968.75
2022-09-28T12:21:57.146Z,968.80
2022-09-28T12:22:57.164Z,968.85
2022-09-28T12:23:57.130Z,968.83
2022-09-28T12:24:57.124Z,968.86
2022-09-28T12:25:57.104Z,968.82
2022-09-28T12:26:57.103Z,968.87
2022-09-28T12:27:57.093Z,968.93
2022-09-28T12:28:57.098Z,968.93
2022-09-28T12:29:57.095Z,968.95
2022-09-28T12:30:57.123Z,968.97
2022-09-28T12:31:57.070Z,968.97
2022-09-28T12:32:57.055Z,969.00